Time;durP1;ratioP1;P1;durP2;ratioP2;P2;SDS_P1;SDS_P2;PMS_P1;PMS_P2;Temp;Humidity;BMP_temperature;BMP_pressure;BME280_temperature;BME280_humidity;BME280_pressure;Samples;Min_cycle;Max_cycle;Signal;HPM_P1;HPM_P2
2023/02/07 00:00:15;;;;;;;21.83;9.48;;;;;;;3.37;46.48;101442.34;4999828;28;20327;-61
2023/02/07 00:02:42;;;;;;;16.23;8.05;;;;;;;3.40;45.76;101450.88;5001415;28;20069;-60
2023/02/07 00:05:08;;;;;;;13.88;7.28;;;;;;;3.42;45.21;101456.91;5001310;28;20054;-61
2023/02/07 00:07:33;;;;;;;13.77;8.02;;;;;;;3.36;45.83;101458.97;5001040;28;20038;-62
2023/02/07 00:09:59;;;;;;;14.52;7.80;;;;;;;3.23;45.74;101458.72;5000890;28;20042;-61
2023/02/07 00:12:24;;;;;;;10.60;6.47;;;;;;;2.14;52.25;101465.41;5001036;28;20224;-61
2023/02/07 00:14:49;;;;;;;9.50;5.72;;;;;;;1.66;55.96;101467.47;5001656;28;20027;-62
2023/02/07 00:17:15;;;;;;;10.27;6.68;;;;;;;1.26;57.96;101466.47;5001181;28;20030;-63
2023/02/07 00:19:40;;;;;;;11.90;6.93;;;;;;;1.34;58.16;101472.22;5000825;28;20080;-63
2023/02/07 00:22:06;;;;;;;12.18;7.07;;;;;;;1.46;57.84;101469.13;5000422;28;20069;-61
2023/02/07 00:24:31;;;;;;;11.45;7.03;;;;;;;1.62;57.01;101476.31;5001509;28;20069;-64
2023/02/07 00:26:57;;;;;;;14.23;7.80;;;;;;;1.53;56.37;101478.41;5000388;28;20466;-63
2023/02/07 00:29:22;;;;;;;13.15;7.55;;;;;;;1.53;56.22;101482.78;5001079;28;20189;-62
2023/02/07 00:31:47;;;;;;;12.05;7.47;;;;;;;1.64;56.35;101477.13;5001013;28;20057;-61
2023/02/07 00:34:14;;;;;;;17.00;8.82;;;;;;;1.74;56.23;101483.66;5000207;28;20343;-62
2023/02/07 00:36:40;;;;;;;17.25;9.27;;;;;;;1.80;55.17;101476.41;5000595;28;20347;-63
2023/02/07 00:39:10;;;;;;;16.00;9.52;;;;;;;1.90;55.23;101477.72;4999818;28;20320;-64
2023/02/07 00:41:36;;;;;;;19.65;9.98;;;;;;;2.16;54.85;101470.56;5000738;28;20030;-61
2023/02/07 00:44:02;;;;;;;14.50;8.60;;;;;;;2.35;54.61;101475.84;5000244;28;20037;-62
2023/02/07 00:46:27;;;;;;;19.65;9.55;;;;;;;2.52;53.09;101471.56;5000412;28;20045;-63
2023/02/07 00:48:53;;;;;;;15.52;8.52;;;;;;;2.48;52.21;101469.16;4999819;28;20042;-63
2023/02/07 00:51:19;;;;;;;25.52;13.25;;;;;;;2.51;52.24;101477.72;4999840;28;20304;-62
2023/02/07 00:53:46;;;;;;;29.40;14.07;;;;;;;2.58;52.00;101470.44;5000696;28;20270;-62
2023/02/07 00:56:12;;;;;;;19.98;9.88;;;;;;;2.71;52.00;101482.03;5000186;28;20046;-64
2023/02/07 00:58:37;;;;;;;19.50;10.32;;;;;;;2.86;50.78;101475.25;5000406;28;20034;-64
2023/02/07 01:01:04;;;;;;;13.68;9.18;;;;;;;2.74;50.44;101475.81;5000343;28;20342;-62
2023/02/07 01:03:30;;;;;;;15.63;9.30;;;;;;;2.77;50.90;101470.47;5000039;28;20038;-61
2023/02/07 01:05:56;;;;;;;15.63;9.40;;;;;;;2.89;50.56;101478.59;5000168;28;20034;-62
2023/02/07 01:08:21;;;;;;;16.83;8.80;;;;;;;2.91;50.07;101468.03;4999840;28;20041;-64
2023/02/07 01:10:47;;;;;;;17.08;9.20;;;;;;;3.04;49.72;101469.16;4999686;28;20034;-63
2023/02/07 01:13:13;;;;;;;17.70;8.35;;;;;;;3.10;49.81;101470.66;4999832;28;20346;-63
2023/02/07 01:15:41;;;;;;;15.98;9.13;;;;;;;2.79;51.09;101468.63;5000204;28;20053;-62
2023/02/07 01:18:07;;;;;;;16.73;9.88;;;;;;;2.38;54.56;101470.47;5000112;28;20073;-62
2023/02/07 01:20:33;;;;;;;16.48;9.43;;;;;;;2.55;53.17;101457.50;5000058;28;20034;-63
2023/02/07 01:22:59;;;;;;;17.63;9.60;;;;;;;2.69;52.92;101460.34;4999627;28;20057;-63
2023/02/07 01:25:24;;;;;;;15.43;8.48;;;;;;;2.77;53.02;101454.75;5000391;28;20342;-61
2023/02/07 01:27:50;;;;;;;17.92;10.10;;;;;;;2.71;51.83;101460.28;4999374;28;20347;-62
2023/02/07 01:30:15;;;;;;;17.70;10.02;;;;;;;2.61;52.24;101457.22;4999544;28;20038;-63
2023/02/07 01:32:41;;;;;;;16.10;9.35;;;;;;;2.64;52.46;101454.47;5000041;28;20798;-63
2023/02/07 01:35:07;;;;;;;16.73;8.93;;;;;;;2.72;52.11;101457.59;4999993;28;20042;-61
2023/02/07 01:37:32;;;;;;;16.35;9.63;;;;;;;2.82;52.17;101456.25;4998588;28;20046;-61
2023/02/07 01:39:58;;;;;;;14.20;9.13;;;;;;;2.80;52.83;101458.09;4999229;28;20097;-64
2023/02/07 01:42:26;;;;;;;14.15;8.52;;;;;;;2.66;53.17;101455.25;4999265;28;20184;-63
2023/02/07 01:45:14;;;;;;;16.95;9.13;;;;;;;2.53;52.27;101462.81;4999292;28;20038;-61
2023/02/07 01:47:40;;;;;;;15.48;8.52;;;;;;;2.58;51.17;101453.91;4999783;28;20133;-62
2023/02/07 01:50:07;;;;;;;17.05;9.43;;;;;;;2.70;50.38;101462.03;4999294;28;20659;-62
2023/02/07 01:52:37;;;;;;;22.77;11.05;;;;;;;2.74;50.87;101460.97;4999016;28;20264;-63
2023/02/07 01:55:17;;;;;;;16.30;9.77;;;;;;;2.80;51.14;101459.84;4999367;28;20041;-63
2023/02/07 01:57:44;;;;;;;17.25;8.77;;;;;;;2.68;51.12;101456.03;5010094;28;20045;-61
2023/02/07 02:00:12;;;;;;;19.08;9.15;;;;;;;2.43;52.50;101452.81;5001053;28;20064;-62
2023/02/07 02:02:38;;;;;;;16.08;8.77;;;;;;;2.47;52.34;101451.78;4998836;28;20052;-63
2023/02/07 02:05:05;;;;;;;16.50;8.98;;;;;;;2.58;52.14;101459.13;4999135;28;20034;-61
2023/02/07 02:07:31;;;;;;;16.08;9.55;;;;;;;2.63;52.73;101452.78;4997640;28;20351;-61
2023/02/07 02:09:59;;;;;;;15.00;9.18;;;;;;;2.58;53.32;101452.13;4998644;28;20394;-64
2023/02/07 02:12:30;;;;;;;16.08;9.75;;;;;;;2.57;52.90;101458.28;4999040;28;20026;-63
2023/02/07 02:15:23;;;;;;;23.85;11.48;;;;;;;1.64;56.10;101453.63;4998874;28;20053;-63
2023/02/07 02:17:55;;;;;;;21.90;12.68;;;;;;;1.71;55.75;101449.84;4998886;28;20049;-61
2023/02/07 02:20:59;;;;;;;25.92;13.18;;;;;;;1.70;54.64;101458.59;4999158;28;20121;-63
2023/02/07 02:23:43;;;;;;;26.38;14.25;;;;;;;1.69;54.30;101460.34;4957531;28;20393;-63
2023/02/07 02:26:30;;;;;;;26.48;12.45;;;;;;;2.05;53.57;101462.31;4998537;28;20251;-61
2023/02/07 02:29:14;;;;;;;22.10;11.85;;;;;;;2.31;53.14;101464.69;4999050;28;20108;-62
2023/02/07 02:31:51;;;;;;;27.63;13.23;;;;;;;2.44;52.93;101465.84;4998648;28;20340;-64
2023/02/07 02:34:27;;;;;;;19.13;11.50;;;;;;;2.56;52.07;101470.50;4998751;28;20365;-64
2023/02/07 02:37:18;;;;;;;31.92;16.00;;;;;;;2.43;51.59;101461.53;4998534;28;20278;-61
2023/02/07 02:40:22;;;;;;;24.73;12.80;;;;;;;2.65;50.89;101460.56;4961797;28;20088;-61
2023/02/07 02:43:03;;;;;;;26.15;12.50;;;;;;;2.79;50.52;101464.22;4918446;29;20042;-63
2023/02/07 02:45:57;;;;;;;18.65;11.10;;;;;;;2.57;52.48;101458.28;4918626;29;20044;-62
2023/02/07 02:48:24;;;;;;;21.05;11.68;;;;;;;2.76;51.94;101458.28;4979294;28;20065;-62
2023/02/07 02:50:53;;;;;;;17.08;10.75;;;;;;;2.85;50.91;101455.25;4998112;28;20038;-61
2023/02/07 02:53:18;;;;;;;18.77;10.15;;;;;;;2.81;50.00;101453.69;4998061;28;20061;-63
2023/02/07 02:55:53;;;;;;;16.38;9.95;;;;;;;2.87;49.92;101451.66;4998467;28;20049;-63
2023/02/07 02:59:01;;;;;;;16.75;9.55;;;;;;;2.91;48.94;101457.59;4997532;28;20050;-61
2023/02/07 03:01:39;;;;;;;16.17;8.68;;;;;;;3.00;48.76;101449.31;4997355;28;20045;-61
2023/02/07 03:04:10;;;;;;;16.50;9.30;;;;;;;3.01;48.40;101456.22;4998293;28;20069;-64
2023/02/07 03:06:38;;;;;;;21.50;9.93;;;;;;;2.96;49.17;101446.91;4998123;28;20042;-61
2023/02/07 03:09:31;;;;;;;20.08;11.75;;;;;;;2.98;49.97;101461.59;4997703;28;20122;-61
2023/02/07 03:12:04;;;;;;;32.13;15.10;;;;;;;3.02;49.88;101457.09;4997775;28;20049;-61
2023/02/07 03:14:40;;;;;;;19.90;10.93;;;;;;;3.05;49.42;101465.63;4997630;28;20398;-63
2023/02/07 03:17:45;;;;;;;22.73;11.55;;;;;;;3.11;49.23;101465.34;4997521;28;20110;-63
2023/02/07 03:20:21;;;;;;;17.95;11.20;;;;;;;3.18;49.29;101469.41;4998222;28;20118;-61
2023/02/07 03:22:50;;;;;;;24.02;10.90;;;;;;;3.19;50.57;101478.94;4998167;28;20220;-63
2023/02/07 03:25:17;;;;;;;46.17;19.20;;;;;;;3.19;50.83;101470.25;4997563;28;20320;-63
2023/02/07 03:27:45;;;;;;;37.15;16.17;;;;;;;3.20;50.49;101478.03;4995236;28;20034;-61
2023/02/07 03:30:15;;;;;;;24.80;13.10;;;;;;;3.19;49.95;101471.09;4991854;28;20045;-61
2023/02/07 03:32:44;;;;;;;32.30;15.23;;;;;;;3.15;50.25;101471.31;4993305;28;20038;-63
2023/02/07 03:35:37;;;;;;;27.85;14.10;;;;;;;3.19;50.38;101475.50;4991830;28;20109;-63
2023/02/07 03:38:04;;;;;;;29.40;13.43;;;;;;;3.21;51.33;101478.88;4992552;28;20042;-61
2023/02/07 03:40:36;;;;;;;27.65;12.75;;;;;;;3.01;52.06;101473.69;4994534;28;20049;-61
2023/02/07 03:43:07;;;;;;;43.58;18.70;;;;;;;2.95;52.50;101469.59;4994796;28;20026;-64
2023/02/07 03:45:32;;;;;;;21.15;10.85;;;;;;;2.99;53.73;101468.53;4989716;28;20085;-62
2023/02/07 03:47:58;;;;;;;14.75;8.65;;;;;;;3.03;54.39;101471.88;4993278;28;20125;-61
2023/02/07 03:50:23;;;;;;;16.02;8.18;;;;;;;3.05;54.84;101470.03;4991380;28;20037;-62
2023/02/07 03:52:49;;;;;;;16.83;8.15;;;;;;;2.99;54.51;101465.94;4993434;28;20034;-62
2023/02/07 03:55:14;;;;;;;11.75;7.95;;;;;;;3.01;52.87;101464.09;4991183;28;20045;-63
2023/02/07 03:57:40;;;;;;;15.13;8.27;;;;;;;3.01;53.01;101468.47;4994064;28;20118;-62
2023/02/07 04:00:07;;;;;;;17.65;9.57;;;;;;;3.02;53.24;101465.78;4993559;28;20275;-62
2023/02/07 04:02:32;;;;;;;159.38;51.38;;;;;;;2.94;53.09;101469.69;4992996;28;20241;-63
2023/02/07 04:04:58;;;;;;;31.27;14.95;;;;;;;2.90;53.37;101466.34;4992570;28;20087;-62
2023/02/07 04:07:24;;;;;;;25.83;13.88;;;;;;;2.83;53.26;101467.56;4992303;28;20038;-63
2023/02/07 04:09:50;;;;;;;24.63;12.57;;;;;;;2.79;54.03;101463.38;4994623;28;20038;-61
2023/02/07 04:12:15;;;;;;;26.67;14.40;;;;;;;2.65;53.94;101469.25;4992168;28;20221;-61
2023/02/07 04:14:40;;;;;;;26.63;14.88;;;;;;;2.70;54.63;101472.50;4993791;28;20046;-63
2023/02/07 04:17:06;;;;;;;27.02;13.52;;;;;;;2.78;54.65;101470.38;4992912;28;20042;-63
2023/02/07 04:19:31;;;;;;;26.10;13.93;;;;;;;2.82;54.88;101476.31;4993596;28;20038;-61
2023/02/07 04:21:57;;;;;;;30.40;15.73;;;;;;;2.80;55.49;101473.78;4992921;28;20453;-62
2023/02/07 04:24:22;;;;;;;34.45;17.55;;;;;;;2.74;55.12;101481.06;4993317;28;20382;-61
2023/02/07 04:26:48;;;;;;;32.95;18.38;;;;;;;2.71;55.26;101482.03;4992927;28;20046;-63
2023/02/07 04:29:13;;;;;;;37.25;17.05;;;;;;;2.67;54.36;101482.25;4992856;28;20034;-63
2023/02/07 04:31:41;;;;;;;27.98;14.35;;;;;;;2.58;54.23;101482.66;4992059;28;20038;-61
2023/02/07 04:34:06;;;;;;;23.73;13.75;;;;;;;2.55;54.03;101489.72;4992942;28;20088;-63
2023/02/07 04:36:32;;;;;;;23.77;12.02;;;;;;;2.65;53.70;101490.16;4992793;28;20030;-63
2023/02/07 04:38:57;;;;;;;21.17;11.25;;;;;;;2.69;53.39;101490.88;4992603;28;20034;-63
2023/02/07 04:41:23;;;;;;;21.05;10.48;;;;;;;2.74;52.93;101494.97;4994079;28;20034;-62
2023/02/07 04:43:49;;;;;;;18.92;10.32;;;;;;;2.75;53.22;101499.28;4992362;28;20042;-64
2023/02/07 04:46:14;;;;;;;23.88;12.45;;;;;;;2.81;52.17;101496.41;4995630;28;20145;-63
2023/02/07 04:48:40;;;;;;;24.05;13.60;;;;;;;2.88;52.33;101504.81;4996759;28;20236;-61
2023/02/07 04:51:06;;;;;;;26.23;14.60;;;;;;;2.95;51.80;101505.38;4996229;28;20306;-62
2023/02/07 04:53:32;;;;;;;32.00;14.45;;;;;;;3.02;52.43;101509.41;4996497;28;20556;-63
2023/02/07 04:55:57;;;;;;;23.60;13.68;;;;;;;3.03;52.37;101508.50;4997061;28;20267;-63
2023/02/07 04:58:24;;;;;;;24.40;14.73;;;;;;;3.01;51.47;101516.41;4997075;28;20034;-61
2023/02/07 05:00:50;;;;;;;22.52;13.40;;;;;;;2.94;51.74;101519.38;4996448;28;20046;-63
2023/02/07 05:03:16;;;;;;;22.63;12.90;;;;;;;2.80;52.64;101525.25;4994019;28;20245;-63
2023/02/07 05:05:43;;;;;;;20.08;12.32;;;;;;;2.68;53.78;101517.94;4995700;28;20084;-63
2023/02/07 05:08:09;;;;;;;19.25;12.27;;;;;;;2.58;54.22;101527.97;4996093;28;20038;-61
2023/02/07 05:10:34;;;;;;;17.23;9.70;;;;;;;2.36;54.81;101535.06;4995705;28;20026;-62
2023/02/07 05:13:00;;;;;;;22.58;11.25;;;;;;;2.13;55.75;101536.03;4997164;28;20110;-63
2023/02/07 05:15:26;;;;;;;15.15;8.63;;;;;;;2.07;56.09;101539.72;4996305;28;20320;-62
2023/02/07 05:17:51;;;;;;;19.25;11.18;;;;;;;1.99;57.37;101539.19;4996208;28;20320;-61
2023/02/07 05:20:18;;;;;;;20.50;9.80;;;;;;;2.16;56.86;101536.75;4996308;28;20424;-63
2023/02/07 05:22:43;;;;;;;18.33;9.57;;;;;;;2.32;56.86;101536.94;4995548;28;20022;-62
2023/02/07 05:25:09;;;;;;;18.73;9.57;;;;;;;2.38;56.94;101533.22;4996315;28;20119;-61
2023/02/07 05:27:34;;;;;;;17.63;10.00;;;;;;;2.45;55.94;101524.19;4994527;28;20038;-60
2023/02/07 05:30:00;;;;;;;19.38;9.73;;;;;;;2.58;55.24;101538.44;4996259;28;20030;-63
2023/02/07 05:35:09;;;;;;;15.45;8.90;;;;;;;2.70;54.41;101544.88;4992409;28;20077;-61
2023/02/07 05:37:34;;;;;;;13.60;8.68;;;;;;;2.39;55.33;101524.47;4984248;28;20042;-62
2023/02/07 05:40:00;;;;;;;13.18;8.30;;;;;;;2.37;56.69;101545.44;4987825;28;20316;-64
2023/02/07 05:42:25;;;;;;;16.48;9.90;;;;;;;2.05;58.61;101548.53;4987803;28;20054;-63
2023/02/07 05:44:51;;;;;;;18.20;10.07;;;;;;;2.07;58.44;101562.38;4986924;28;20264;-62
2023/02/07 05:47:16;;;;;;;21.95;10.13;;;;;;;2.08;58.35;101551.91;4985781;28;20038;-63
2023/02/07 05:49:42;;;;;;;25.30;13.07;;;;;;;2.04;57.82;101563.38;4986642;28;20129;-63
2023/02/07 05:52:07;;;;;;;21.40;11.68;;;;;;;1.51;59.36;101560.31;4985299;28;20316;-61
2023/02/07 05:54:33;;;;;;;23.50;11.80;;;;;;;1.57;59.90;101568.75;4984675;28;20062;-61
2023/02/07 05:56:58;;;;;;;23.42;12.45;;;;;;;1.41;60.17;101565.03;4987716;28;20040;-63
2023/02/07 05:59:24;;;;;;;20.83;10.98;;;;;;;1.33;60.20;101566.25;4988132;28;20105;-63
2023/02/07 06:01:49;;;;;;;23.35;10.95;;;;;;;1.26;60.85;101563.88;4983966;28;20301;-62
2023/02/07 06:04:15;;;;;;;16.13;8.75;;;;;;;1.37;61.03;101576.50;4987127;28;20077;-62
2023/02/07 06:06:40;;;;;;;16.23;8.60;;;;;;;1.40;61.14;101578.16;4985480;28;20280;-64
2023/02/07 06:09:06;;;;;;;14.70;7.60;;;;;;;1.57;60.28;101567.91;4983351;28;20071;-63
2023/02/07 06:11:31;;;;;;;15.52;8.20;;;;;;;1.89;61.19;101564.00;4988542;28;20042;-61
2023/02/07 06:13:56;;;;;;;13.40;7.47;;;;;;;2.13;59.76;101565.63;4991259;28;20043;-61
2023/02/07 06:16:22;;;;;;;16.30;9.10;;;;;;;2.34;58.34;101568.25;4985378;28;20035;-63
2023/02/07 06:18:47;;;;;;;14.82;8.00;;;;;;;2.51;58.22;101566.63;4984606;28;20311;-63
2023/02/07 06:21:13;;;;;;;13.77;7.95;;;;;;;2.64;57.16;101572.16;4985707;28;20367;-61
2023/02/07 06:23:38;;;;;;;15.57;8.77;;;;;;;2.74;56.42;101580.47;4984054;28;20324;-62
2023/02/07 06:26:04;;;;;;;44.00;18.42;;;;;;;2.77;57.20;101577.72;4983304;28;20049;-64
2023/02/07 06:28:29;;;;;;;28.10;12.32;;;;;;;2.86;56.49;101577.28;4987480;28;20044;-63
2023/02/07 06:30:55;;;;;;;20.00;10.65;;;;;;;3.00;54.86;101579.28;4986379;28;20037;-62
2023/02/07 06:33:20;;;;;;;17.85;9.52;;;;;;;3.15;53.57;101576.00;4983855;28;20041;-63
2023/02/07 06:35:46;;;;;;;21.05;10.85;;;;;;;3.31;53.09;101584.00;4987549;28;20034;-63
2023/02/07 06:38:18;;;;;;;12.73;7.40;;;;;;;3.42;51.03;101579.13;4986125;28;20227;-61
2023/02/07 06:40:44;;;;;;;28.35;12.73;;;;;;;3.55;51.61;101584.63;4985809;28;20061;-62
2023/02/07 06:43:10;;;;;;;24.08;9.98;;;;;;;3.62;51.80;101594.75;4984698;28;20035;-63
2023/02/07 06:45:36;;;;;;;15.73;8.18;;;;;;;3.68;50.20;101593.63;4984362;28;20280;-63
2023/02/07 06:48:02;;;;;;;16.50;9.27;;;;;;;3.73;49.00;101589.00;4982619;28;20352;-61
2023/02/07 06:50:27;;;;;;;15.70;8.80;;;;;;;3.81;48.62;101595.56;4986303;28;20046;-62
2023/02/07 06:52:53;;;;;;;15.25;9.60;;;;;;;3.78;48.56;101600.13;4983919;28;20109;-63
2023/02/07 06:55:18;;;;;;;15.30;9.30;;;;;;;3.63;49.23;101595.59;4986984;28;20514;-63
2023/02/07 06:57:43;;;;;;;17.05;8.85;;;;;;;3.79;48.68;101589.56;4986384;28;20086;-61
2023/02/07 07:00:09;;;;;;;16.15;9.00;;;;;;;3.95;48.04;101591.44;4985965;28;20093;-62
2023/02/07 07:02:35;;;;;;;21.48;9.50;;;;;;;3.91;47.17;101593.34;4990406;28;20042;-64
2023/02/07 07:05:00;;;;;;;13.73;7.43;;;;;;;3.67;45.75;101594.53;4983558;28;20038;-62
2023/02/07 07:07:26;;;;;;;12.88;8.25;;;;;;;3.66;45.54;101585.81;4983582;28;20109;-61
2023/02/07 07:09:51;;;;;;;10.60;6.93;;;;;;;3.48;45.70;101587.53;4984753;28;20320;-62
2023/02/07 07:12:17;;;;;;;18.08;8.57;;;;;;;3.69;46.62;101590.91;4984532;28;20058;-62
2023/02/07 07:14:42;;;;;;;30.63;15.25;;;;;;;3.76;48.20;101581.84;4984264;28;20189;-64
2023/02/07 07:17:08;;;;;;;22.08;13.18;;;;;;;3.67;48.97;101576.19;4984954;28;20034;-61
2023/02/07 07:19:33;;;;;;;19.40;10.98;;;;;;;3.75;47.74;101581.91;4985388;28;20038;-63
2023/02/07 07:21:58;;;;;;;17.25;9.90;;;;;;;3.90;46.21;101590.81;4986538;28;20026;-63
2023/02/07 07:24:24;;;;;;;23.65;13.38;;;;;;;3.94;47.95;101587.13;4985464;28;20042;-62
2023/02/07 07:26:50;;;;;;;24.83;13.90;;;;;;;3.94;49.83;101587.97;4983522;28;20046;-61
2023/02/07 07:29:17;;;;;;;23.75;11.88;;;;;;;3.77;49.70;101582.69;4982854;28;20043;-62
2023/02/07 07:31:43;;;;;;;18.63;10.48;;;;;;;3.60;50.28;101585.28;4982051;28;20029;-64
2023/02/07 07:34:08;;;;;;;26.85;12.00;;;;;;;3.78;50.33;101581.78;4984442;28;20058;-61
2023/02/07 07:36:34;;;;;;;16.10;8.52;;;;;;;4.01;48.75;101588.50;4984424;28;20078;-62
2023/02/07 07:38:59;;;;;;;15.73;8.90;;;;;;;3.96;48.70;101586.13;4990476;28;20037;-63
2023/02/07 07:41:25;;;;;;;15.38;8.73;;;;;;;3.91;48.13;101587.28;4982733;28;20110;-63
2023/02/07 07:43:50;;;;;;;12.38;6.93;;;;;;;4.07;47.16;101585.59;4982710;28;20038;-61
2023/02/07 07:46:15;;;;;;;13.82;6.32;;;;;;;4.38;47.09;101580.53;4987536;28;20307;-61
2023/02/07 07:48:41;;;;;;;9.57;6.22;;;;;;;4.54;45.52;101578.00;4985852;28;20046;-64
2023/02/07 07:51:06;;;;;;;9.98;6.05;;;;;;;4.80;43.35;101582.72;4982993;28;20073;-62
2023/02/07 07:53:32;;;;;;;8.75;5.50;;;;;;;5.01;42.18;101585.16;4982808;28;20243;-61
2023/02/07 07:55:57;;;;;;;9.25;6.38;;;;;;;5.02;41.69;101582.44;4982532;28;20049;-61
2023/02/07 07:58:24;;;;;;;9.05;5.15;;;;;;;5.16;40.76;101576.44;4985941;28;20325;-63
2023/02/07 08:00:50;;;;;;;9.32;5.72;;;;;;;5.29;40.60;101581.91;4984138;28;20046;-63
2023/02/07 08:03:18;;;;;;;9.05;5.20;;;;;;;5.22;40.63;101581.41;4984295;28;20117;-61
2023/02/07 08:05:44;;;;;;;8.95;5.00;;;;;;;5.09;40.18;101575.94;4987664;28;20030;-62
2023/02/07 08:08:09;;;;;;;6.63;4.70;;;;;;;5.24;39.94;101576.91;4982196;28;20077;-63
2023/02/07 08:10:35;;;;;;;7.63;4.88;;;;;;;5.33;39.58;101575.56;4986111;28;20062;-63
2023/02/07 08:13:00;;;;;;;6.47;4.50;;;;;;;5.37;40.13;101571.84;4985209;28;20030;-61
2023/02/07 08:15:26;;;;;;;6.65;4.40;;;;;;;5.43;39.92;101568.88;4985352;28;20047;-61
2023/02/07 08:17:51;;;;;;;8.30;4.85;;;;;;;5.53;39.18;101570.06;4984520;28;20089;-63
2023/02/07 08:20:17;;;;;;;8.90;4.82;;;;;;;5.60;39.16;101562.69;4983955;28;20044;-63
2023/02/07 08:22:42;;;;;;;8.90;5.47;;;;;;;5.46;38.40;101566.06;4986312;28;20080;-61
2023/02/07 08:25:08;;;;;;;9.30;5.10;;;;;;;5.49;39.30;101565.06;4990342;28;20045;-62
2023/02/07 08:27:34;;;;;;;9.10;5.78;;;;;;;5.43;38.87;101566.25;4989093;28;20271;-62
2023/02/07 08:30:00;;;;;;;9.40;5.00;;;;;;;5.32;39.38;101564.22;4988121;28;20034;-62
2023/02/07 08:32:27;;;;;;;7.80;5.25;;;;;;;5.58;39.57;101560.13;4986319;28;20038;-63
2023/02/07 08:34:52;;;;;;;12.93;6.07;;;;;;;5.48;40.04;101563.38;4989945;28;20039;-63
2023/02/07 08:37:18;;;;;;;7.55;4.95;;;;;;;5.34;40.39;101564.13;4988907;28;20351;-61
2023/02/07 08:39:44;;;;;;;8.43;5.18;;;;;;;5.10;40.11;101556.63;4986642;28;20222;-61
2023/02/07 08:42:10;;;;;;;10.10;5.20;;;;;;;5.14;40.69;101560.78;4990018;28;20045;-61
2023/02/07 08:44:36;;;;;;;9.15;5.60;;;;;;;5.13;41.08;101559.09;4988571;28;20034;-61
2023/02/07 08:47:02;;;;;;;8.63;5.50;;;;;;;5.00;40.95;101555.41;4987420;28;20073;-63
2023/02/07 08:49:27;;;;;;;9.70;5.05;;;;;;;5.09;40.82;101554.09;4988232;28;20351;-62
2023/02/07 08:51:53;;;;;;;9.82;5.43;;;;;;;5.19;41.15;101554.44;4986037;28;20371;-61
2023/02/07 08:54:18;;;;;;;7.53;5.10;;;;;;;5.28;41.52;101552.19;4987880;28;20038;-61
2023/02/07 08:56:44;;;;;;;9.30;4.93;;;;;;;5.31;41.29;101556.41;4989379;28;20069;-62
2023/02/07 08:59:10;;;;;;;8.48;5.00;;;;;;;5.32;41.22;101540.56;4987957;28;20042;-62
2023/02/07 09:01:35;;;;;;;7.63;5.07;;;;;;;5.35;40.34;101550.91;4987500;28;20386;-64
2023/02/07 09:04:01;;;;;;;8.93;5.28;;;;;;;5.50;39.88;101543.09;4985060;28;21993;-63
2023/02/07 09:06:27;;;;;;;11.15;6.20;;;;;;;5.61;40.24;101554.72;4984930;28;20320;-60
2023/02/07 09:08:52;;;;;;;10.73;5.93;;;;;;;5.33;40.19;101544.91;4995688;28;20064;-62
2023/02/07 09:11:18;;;;;;;7.03;5.30;;;;;;;5.46;39.33;101555.56;4995152;28;20038;-60
2023/02/07 09:13:45;;;;;;;10.52;5.50;;;;;;;5.57;38.50;101545.31;4995055;28;21150;-62
2023/02/07 09:16:12;;;;;;;11.48;4.78;;;;;;;5.53;36.76;101546.41;4995989;28;20113;-62
2023/02/07 09:18:38;;;;;;;7.30;4.70;;;;;;;5.48;36.70;101547.59;4995563;28;20030;-61
2023/02/07 09:21:04;;;;;;;11.27;5.28;;;;;;;5.61;37.12;101543.34;4995803;28;20065;-61
2023/02/07 09:23:32;;;;;;;8.45;4.90;;;;;;;5.67;37.84;101540.38;4996141;28;20055;-61
2023/02/07 09:26:01;;;;;;;9.65;5.53;;;;;;;5.75;38.47;101531.13;4995056;28;20034;-61
2023/02/07 09:28:30;;;;;;;10.05;5.45;;;;;;;5.78;37.92;101533.56;4994247;28;20065;-63
2023/02/07 09:30:56;;;;;;;10.43;5.20;;;;;;;5.83;36.18;101529.84;4995004;28;20058;-63
2023/02/07 09:33:24;;;;;;;8.20;5.35;;;;;;;5.65;35.46;101524.69;4996250;28;20367;-61
2023/02/07 09:35:51;;;;;;;9.05;4.82;;;;;;;5.58;36.05;101515.47;4995641;28;20342;-61
2023/02/07 09:38:19;;;;;;;7.50;4.32;;;;;;;5.38;36.01;101519.22;4995147;28;20034;-63
2023/02/07 09:40:48;;;;;;;7.07;4.70;;;;;;;5.21;35.00;101524.56;4995724;28;20237;-62
2023/02/07 09:43:31;;;;;;;8.02;4.13;;;;;;;5.04;34.90;101520.19;4995484;28;20121;-61
2023/02/07 09:46:01;;;;;;;6.73;4.73;;;;;;;5.05;34.60;101515.78;4992819;28;20053;-61
2023/02/07 09:48:51;;;;;;;5.57;3.53;;;;;;;4.91;34.63;101520.94;4995295;28;20384;-61
2023/02/07 09:51:22;;;;;;;8.82;5.22;;;;;;;4.97;34.70;101512.75;4995061;28;20038;-61
2023/02/07 09:53:56;;;;;;;6.88;4.15;;;;;;;4.93;34.67;101503.34;4993099;28;21002;-64
2023/02/07 09:56:25;;;;;;;8.38;4.80;;;;;;;4.85;33.36;101498.50;4994473;28;20097;-63
2023/02/07 09:59:09;;;;;;;6.53;3.97;;;;;;;4.88;34.05;101489.59;4996070;28;20080;-62
2023/02/07 10:01:45;;;;;;;8.75;4.50;;;;;;;4.84;32.84;101496.81;4994487;28;20359;-62
2023/02/07 10:04:20;;;;;;;7.20;3.90;;;;;;;4.82;33.17;101482.91;4993131;28;20050;-63
2023/02/07 10:06:51;;;;;;;5.60;3.90;;;;;;;4.56;33.93;101491.34;4994541;28;20097;-61
2023/02/07 10:09:22;;;;;;;7.28;4.47;;;;;;;4.79;34.13;101483.09;4994164;28;20515;-61
2023/02/07 10:12:04;;;;;;;15.18;6.80;;;;;;;4.92;32.62;101484.09;4994508;28;20034;-62
2023/02/07 10:14:35;;;;;;;7.05;4.25;;;;;;;4.90;33.20;101475.47;4995422;28;20046;-61
2023/02/07 10:17:34;;;;;;;5.70;3.42;;;;;;;4.70;32.90;101476.56;4994830;28;20034;-61
2023/02/07 10:20:22;;;;;;;11.68;4.72;;;;;;;4.54;33.41;101469.59;4993386;28;20248;-61
2023/02/07 10:23:28;;;;;;;11.40;3.75;;;;;;;4.51;31.43;101465.34;4985332;28;20050;-63
2023/02/07 10:26:09;;;;;;;8.15;4.45;;;;;;;4.35;32.99;101459.22;4994733;28;20251;-63
2023/02/07 10:29:02;;;;;;;4.97;3.50;;;;;;;4.45;32.47;101463.03;4994293;28;20038;-62
2023/02/07 10:31:31;;;;;;;6.00;4.13;;;;;;;4.27;33.07;101458.78;4992113;28;20061;-62
2023/02/07 10:34:01;;;;;;;9.50;4.20;;;;;;;4.47;33.38;101455.94;4993811;28;21158;-62
2023/02/07 10:36:32;;;;;;;12.30;6.68;;;;;;;4.59;33.70;101455.28;4995614;28;20089;-63
2023/02/07 10:39:06;;;;;;;6.35;3.78;;;;;;;4.77;33.51;101449.03;4995500;28;20355;-62
2023/02/07 10:41:37;;;;;;;;;;;;;;;4.93;34.03;101448.22;4994711;28;20352;-61
2023/02/07 10:44:05;;;;;;;8.70;3.83;;;;;;;4.63;32.52;101445.47;4993648;28;19925;-62
2023/02/07 10:46:33;;;;;;;7.18;4.03;;;;;;;4.78;32.95;101440.25;4994670;28;20033;-62
2023/02/07 10:48:59;;;;;;;12.13;4.53;;;;;;;4.76;32.64;101447.34;4993232;28;20045;-62
2023/02/07 10:51:41;;;;;;;8.18;4.45;;;;;;;4.89;32.39;101444.06;4993030;28;20038;-61
2023/02/07 10:54:09;;;;;;;6.55;4.03;;;;;;;5.07;32.08;101435.16;4992878;28;20064;-64
2023/02/07 10:56:59;;;;;;;11.27;4.80;;;;;;;5.09;31.63;101435.94;4994189;28;20034;-63
2023/02/07 10:59:30;;;;;;;9.23;5.03;;;;;;;4.97;31.52;101436.59;4998099;28;20057;-63
2023/02/07 11:01:56;;;;;;;6.60;4.20;;;;;;;4.99;32.17;101432.13;4998077;28;20042;-62
2023/02/07 11:04:32;;;;;;;5.28;3.40;;;;;;;5.09;32.13;101428.91;4997857;28;20089;-62
2023/02/07 11:07:00;;;;;;;6.38;3.05;;;;;;;5.20;30.84;101424.81;4998948;28;20042;-64
2023/02/07 11:09:26;;;;;;;5.80;3.15;;;;;;;5.13;30.22;101425.16;4997041;28;20329;-62
2023/02/07 11:11:53;;;;;;;6.03;3.63;;;;;;;5.13;30.16;101419.06;4993126;28;20076;-62
2023/02/07 11:14:27;;;;;;;5.95;3.60;;;;;;;5.05;30.38;101422.13;4993443;28;20112;-62
2023/02/07 11:17:00;;;;;;;6.85;3.78;;;;;;;5.09;30.19;101417.53;4992367;28;20350;-62
2023/02/07 11:19:28;;;;;;;5.45;2.78;;;;;;;5.29;31.12;101416.44;4992527;28;20045;-63
2023/02/07 11:22:09;;;;;;;3.42;2.20;;;;;;;5.27;29.23;101407.81;4993625;28;20049;-61
2023/02/07 11:24:36;;;;;;;5.65;2.83;;;;;;;5.11;29.77;101408.66;4993502;28;20065;-62
2023/02/07 11:27:15;;;;;;;9.90;4.20;;;;;;;5.17;29.71;101409.22;4992719;28;20077;-62
2023/02/07 11:29:59;;;;;;;8.43;4.10;;;;;;;4.95;30.33;101397.31;4991734;28;20057;-61
2023/02/07 11:32:26;;;;;;;;;;;;;;;4.86;29.90;101403.09;4992103;28;20042;-63
2023/02/07 11:34:56;;;;;;;4.50;3.28;;;;;;;4.82;30.07;101398.94;4992256;28;20220;-63